sensor_id;sensor_type;location;lat;lon;timestamp;pressure;altitude;pressure_sealevel;temperature;humidity
77281;BME280;66339;47.262;17.144;2023-07-20T00:01:13;99634.66;;;25.81;56.90
77281;BME280;66339;47.262;17.144;2023-07-20T00:03:40;99633.88;;;25.81;56.87
77281;BME280;66339;47.262;17.144;2023-07-20T00:06:07;99625.75;;;25.81;56.74
77281;BME280;66339;47.262;17.144;2023-07-20T00:08:36;99630.03;;;25.82;56.74
77281;BME280;66339;47.262;17.144;2023-07-20T00:11:03;99621.91;;;25.82;56.74
77281;BME280;66339;47.262;17.144;2023-07-20T00:13:30;99620.69;;;25.79;56.88
77281;BME280;66339;47.262;17.144;2023-07-20T00:15:57;99617.97;;;25.79;56.88
77281;BME280;66339;47.262;17.144;2023-07-20T00:18:23;99616.41;;;25.78;56.86
77281;BME280;66339;47.262;17.144;2023-07-20T00:20:50;99621.81;;;25.78;56.88
77281;BME280;66339;47.262;17.144;2023-07-20T00:23:20;99621.00;;;25.78;56.90
77281;BME280;66339;47.262;17.144;2023-07-20T00:25:46;99614.75;;;25.77;56.87
77281;BME280;66339;47.262;17.144;2023-07-20T00:28:13;99624.53;;;25.78;56.84
77281;BME280;66339;47.262;17.144;2023-07-20T00:30:43;99629.44;;;25.76;56.88
77281;BME280;66339;47.262;17.144;2023-07-20T00:33:10;99618.59;;;25.76;56.85
77281;BME280;66339;47.262;17.144;2023-07-20T00:35:37;99620.53;;;25.76;56.85
77281;BME280;66339;47.262;17.144;2023-07-20T00:38:04;99620.84;;;25.74;56.87
77281;BME280;66339;47.262;17.144;2023-07-20T00:40:40;99623.22;;;25.76;56.85
77281;BME280;66339;47.262;17.144;2023-07-20T00:43:07;99623.56;;;25.74;56.85
77281;BME280;66339;47.262;17.144;2023-07-20T00:45:37;99625.16;;;25.75;56.83
77281;BME280;66339;47.262;17.144;2023-07-20T00:48:05;99622.44;;;25.75;56.83
77281;BME280;66339;47.262;17.144;2023-07-20T00:50:33;99620.84;;;25.74;56.86
77281;BME280;66339;47.262;17.144;2023-07-20T00:53:00;99614.63;;;25.74;56.83
77281;BME280;66339;47.262;17.144;2023-07-20T00:55:29;99613.84;;;25.73;56.80
77281;BME280;66339;47.262;17.144;2023-07-20T00:57:55;99619.25;;;25.73;56.76
77281;BME280;66339;47.262;17.144;2023-07-20T01:00:25;99602.22;;;25.73;56.71
77281;BME280;66339;47.262;17.144;2023-07-20T01:02:51;99603.00;;;25.73;56.67
77281;BME280;66339;47.262;17.144;2023-07-20T01:05:18;99613.84;;;25.73;56.62
77281;BME280;66339;47.262;17.144;2023-07-20T01:13:02;99595.56;;;25.70;56.66
77281;BME280;66339;47.262;17.144;2023-07-20T01:15:29;99612.63;;;25.70;56.58
77281;BME280;66339;47.262;17.144;2023-07-20T01:17:59;99614.50;;;25.70;56.49
77281;BME280;66339;47.262;17.144;2023-07-20T01:20:29;99619.94;;;25.70;56.43
77281;BME280;66339;47.262;17.144;2023-07-20T01:28:24;99642.28;;;25.67;56.41
77281;BME280;66339;47.262;17.144;2023-07-20T01:31:09;99638.78;;;25.66;56.45
77281;BME280;66339;47.262;17.144;2023-07-20T01:33:37;99642.28;;;25.67;56.38
77281;BME280;66339;47.262;17.144;2023-07-20T01:36:05;99650.41;;;25.67;56.37
77281;BME280;66339;47.262;17.144;2023-07-20T01:38:35;99658.53;;;25.67;56.38
77281;BME280;66339;47.262;17.144;2023-07-20T01:41:02;99662.34;;;25.66;56.38
77281;BME280;66339;47.262;17.144;2023-07-20T01:43:33;99656.94;;;25.66;56.29
77281;BME280;66339;47.262;17.144;2023-07-20T01:46:02;99655.34;;;25.65;56.33
77281;BME280;66339;47.262;17.144;2023-07-20T01:48:29;99666.19;;;25.65;56.35
77281;BME280;66339;47.262;17.144;2023-07-20T01:50:56;99678.16;;;25.64;56.40
77281;BME280;66339;47.262;17.144;2023-07-20T01:53:22;99680.87;;;25.64;56.44
77281;BME280;66339;47.262;17.144;2023-07-20T01:55:52;99677.38;;;25.63;56.49
77281;BME280;66339;47.262;17.144;2023-07-20T01:58:18;99681.22;;;25.62;56.53
77281;BME280;66339;47.262;17.144;2023-07-20T02:00:45;99673.87;;;25.63;56.51
77281;BME280;66339;47.262;17.144;2023-07-20T02:03:11;99667.97;;;25.61;56.56
77281;BME280;66339;47.262;17.144;2023-07-20T02:05:38;99666.84;;;25.62;56.60
77281;BME280;66339;47.262;17.144;2023-07-20T02:08:05;99663.34;;;25.61;56.72
77281;BME280;66339;47.262;17.144;2023-07-20T02:10:32;99669.12;;;25.60;56.82
77281;BME280;66339;47.262;17.144;2023-07-20T02:13:02;99666.84;;;25.62;56.83
77281;BME280;66339;47.262;17.144;2023-07-20T02:15:28;99666.06;;;25.61;56.92
77281;BME280;66339;47.262;17.144;2023-07-20T02:17:55;99675.78;;;25.62;56.83
77281;BME280;66339;47.262;17.144;2023-07-20T02:20:22;99688.06;;;25.60;56.87
77281;BME280;66339;47.262;17.144;2023-07-20T02:22:49;99673.41;;;25.61;56.82
77281;BME280;66339;47.262;17.144;2023-07-20T02:25:16;99680.72;;;25.60;56.81
77281;BME280;66339;47.262;17.144;2023-07-20T02:27:42;99673.41;;;25.61;56.75
77281;BME280;66339;47.262;17.144;2023-07-20T02:30:09;99674.53;;;25.60;56.68
77281;BME280;66339;47.262;17.144;2023-07-20T02:32:36;99667.97;;;25.61;56.65
77281;BME280;66339;47.262;17.144;2023-07-20T02:35:03;99672.13;;;25.58;56.73
77281;BME280;66339;47.262;17.144;2023-07-20T02:37:30;99672.47;;;25.57;56.72
77281;BME280;66339;47.262;17.144;2023-07-20T02:39:57;99675.19;;;25.57;56.75
77281;BME280;66339;47.262;17.144;2023-07-20T02:42:23;99686.03;;;25.57;56.72
77281;BME280;66339;47.262;17.144;2023-07-20T02:44:50;99693.00;;;25.58;56.70
77281;BME280;66339;47.262;17.144;2023-07-20T02:47:17;99696.84;;;25.57;56.71
77281;BME280;66339;47.262;17.144;2023-07-20T02:49:44;99703.84;;;25.58;56.67
77281;BME280;66339;47.262;17.144;2023-07-20T02:52:13;99699.56;;;25.57;56.62
77281;BME280;66339;47.262;17.144;2023-07-20T02:54:40;99695.28;;;25.56;56.54
77281;BME280;66339;47.262;17.144;2023-07-20T02:57:07;99689.84;;;25.56;56.50
77281;BME280;66339;47.262;17.144;2023-07-20T02:59:37;99688.28;;;25.55;56.49
77281;BME280;66339;47.262;17.144;2023-07-20T03:02:03;99692.09;;;25.54;56.52
77281;BME280;66339;47.262;17.144;2023-07-20T03:04:30;99688.28;;;25.55;56.42
77281;BME280;66339;47.262;17.144;2023-07-20T03:06:57;99688.59;;;25.53;56.46
77281;BME280;66339;47.262;17.144;2023-07-20T03:09:24;99686.69;;;25.54;56.44
77281;BME280;66339;47.262;17.144;2023-07-20T03:11:50;99692.09;;;25.54;56.42
77281;BME280;66339;47.262;17.144;2023-07-20T03:14:17;99706.41;;;25.54;56.42
77281;BME280;66339;47.262;17.144;2023-07-20T03:16:44;99694.78;;;25.54;56.38
77281;BME280;66339;47.262;17.144;2023-07-20T03:19:11;99695.94;;;25.53;56.34
77281;BME280;66339;47.262;17.144;2023-07-20T03:21:40;99694.34;;;25.52;56.34
77281;BME280;66339;47.262;17.144;2023-07-20T03:24:07;99695.94;;;25.53;56.34
77281;BME280;66339;47.262;17.144;2023-07-20T03:26:34;99689.25;;;25.50;56.34
77281;BME280;66339;47.262;17.144;2023-07-20T03:29:01;99687.34;;;25.51;56.30
77281;BME280;66339;47.262;17.144;2023-07-20T03:31:31;99690.06;;;25.51;56.26
77281;BME280;66339;47.262;17.144;2023-07-20T03:33:57;99695.47;;;25.51;56.21
77281;BME280;66339;47.262;17.144;2023-07-20T03:36:24;99696.59;;;25.50;56.26
77281;BME280;66339;47.262;17.144;2023-07-20T03:38:51;99697.38;;;25.50;56.31
77281;BME280;66339;47.262;17.144;2023-07-20T03:41:17;99696.59;;;25.50;56.32
77281;BME280;66339;47.262;17.144;2023-07-20T03:43:47;99702.00;;;25.50;56.31
77281;BME280;66339;47.262;17.144;2023-07-20T03:46:13;99702.00;;;25.50;56.33
77281;BME280;66339;47.262;17.144;2023-07-20T03:48:40;99705.06;;;25.48;56.42
77281;BME280;66339;47.262;17.144;2023-07-20T03:51:09;99698.84;;;25.48;56.43
77281;BME280;66339;47.262;17.144;2023-07-20T03:53:36;99700.75;;;25.47;56.41
77281;BME280;66339;47.262;17.144;2023-07-20T03:56:03;99709.69;;;25.48;56.41
77281;BME280;66339;47.262;17.144;2023-07-20T03:58:30;99719.72;;;25.47;56.43
77281;BME280;66339;47.262;17.144;2023-07-20T04:00:57;99719.72;;;25.47;56.51
77281;BME280;66339;47.262;17.144;2023-07-20T04:03:23;99704.91;;;25.44;56.52
77281;BME280;66339;47.262;17.144;2023-07-20T04:05:50;99713.47;;;25.46;56.50
77281;BME280;66339;47.262;17.144;2023-07-20T04:08:17;99710.34;;;25.44;56.52
77281;BME280;66339;47.262;17.144;2023-07-20T04:10:44;99708.06;;;25.46;56.52
77281;BME280;66339;47.262;17.144;2023-07-20T04:13:10;99702.66;;;25.46;56.48
77281;BME280;66339;47.262;17.144;2023-07-20T04:15:37;99708.06;;;25.46;56.45
77281;BME280;66339;47.262;17.144;2023-07-20T04:18:05;99702.66;;;25.46;56.49
77281;BME280;66339;47.262;17.144;2023-07-20T04:20:32;99706.50;;;25.45;56.51
77281;BME280;66339;47.262;17.144;2023-07-20T04:22:59;99703.78;;;25.45;56.45
77281;BME280;66339;47.262;17.144;2023-07-20T04:25:26;99709.19;;;25.45;56.48
77281;BME280;66339;47.262;17.144;2023-07-20T04:27:52;99718.91;;;25.46;56.46
77281;BME280;66339;47.262;17.144;2023-07-20T04:30:19;99729.72;;;25.46;56.50
77281;BME280;66339;47.262;17.144;2023-07-20T04:32:46;99727.37;;;25.45;56.53
77281;BME280;66339;47.262;17.144;2023-07-20T04:35:45;99728.16;;;25.45;56.58
77281;BME280;66339;47.262;17.144;2023-07-20T04:38:05;99735.16;;;25.46;56.61
77281;BME280;66339;47.262;17.144;2023-07-20T04:40:31;99738.97;;;25.45;56.67
77281;BME280;66339;47.262;17.144;2023-07-20T04:42:58;99750.94;;;25.44;56.70
77281;BME280;66339;47.262;17.144;2023-07-20T04:45:24;99745.53;;;25.44;56.76
77281;BME280;66339;47.262;17.144;2023-07-20T04:47:51;99742.81;;;25.44;56.76
77281;BME280;66339;47.262;17.144;2023-07-20T04:50:18;99752.06;;;25.43;56.83
77281;BME280;66339;47.262;17.144;2023-07-20T04:52:45;99748.25;;;25.44;56.85
77281;BME280;66339;47.262;17.144;2023-07-20T04:55:12;99745.53;;;25.44;56.84
77281;BME280;66339;47.262;17.144;2023-07-20T04:57:39;99748.25;;;25.44;56.91
77281;BME280;66339;47.262;17.144;2023-07-20T05:00:06;99748.56;;;25.43;56.99
77281;BME280;66339;47.262;17.144;2023-07-20T05:02:32;99759.06;;;25.44;57.02
77281;BME280;66339;47.262;17.144;2023-07-20T05:04:59;99763.69;;;25.44;57.01
77281;BME280;66339;47.262;17.144;2023-07-20T05:07:26;99759.06;;;25.44;57.03
77281;BME280;66339;47.262;17.144;2023-07-20T05:09:52;99762.13;;;25.43;57.12
77281;BME280;66339;47.262;17.144;2023-07-20T05:12:19;99762.91;;;25.43;57.14
77281;BME280;66339;47.262;17.144;2023-07-20T05:14:49;99771.47;;;25.45;57.12
77281;BME280;66339;47.262;17.144;2023-07-20T05:17:15;99764.94;;;25.46;57.10
77281;BME280;66339;47.262;17.144;2023-07-20T05:19:42;99770.34;;;25.46;57.11
77281;BME280;66339;47.262;17.144;2023-07-20T05:22:10;99766.06;;;25.45;57.12
77281;BME280;66339;47.262;17.144;2023-07-20T05:24:37;99767.63;;;25.46;57.10
77281;BME280;66339;47.262;17.144;2023-07-20T05:27:03;99767.63;;;25.46;57.06
77281;BME280;66339;47.262;17.144;2023-07-20T05:29:30;99774.66;;;25.48;57.04
77281;BME280;66339;47.262;17.144;2023-07-20T05:31:57;99770.69;;;25.45;57.07
77281;BME280;66339;47.262;17.144;2023-07-20T05:34:24;99767.97;;;25.45;57.13
77281;BME280;66339;47.262;17.144;2023-07-20T05:36:50;99767.97;;;25.45;57.23
77281;BME280;66339;47.262;17.144;2023-07-20T05:39:17;99767.63;;;25.46;57.37
77281;BME280;66339;47.262;17.144;2023-07-20T05:41:44;99766.84;;;25.46;57.36
77281;BME280;66339;47.262;17.144;2023-07-20T05:44:10;99765.75;;;25.47;57.33
77281;BME280;66339;47.262;17.144;2023-07-20T05:46:37;99765.41;;;25.49;57.31
77281;BME280;66339;47.262;17.144;2023-07-20T05:49:22;99765.41;;;25.49;57.31
77281;BME280;66339;47.262;17.144;2023-07-20T05:51:49;99777.81;;;25.50;57.33
77281;BME280;66339;47.262;17.144;2023-07-20T05:54:15;99766.97;;;25.50;57.29
77281;BME280;66339;47.262;17.144;2023-07-20T05:56:42;99777.16;;;25.53;57.08
77281;BME280;66339;47.262;17.144;2023-07-20T05:59:08;99775.59;;;25.52;57.15
77281;BME280;66339;47.262;17.144;2023-07-20T06:01:35;99770.16;;;25.52;57.10
77281;BME280;66339;47.262;17.144;2023-07-20T06:04:04;99778.28;;;25.52;57.04
77281;BME280;66339;47.262;17.144;2023-07-20T06:06:31;99782.56;;;25.53;57.14
77281;BME280;66339;47.262;17.144;2023-07-20T06:08:57;99774.44;;;25.53;57.11
77281;BME280;66339;47.262;17.144;2023-07-20T06:11:24;99778.75;;;25.54;57.20
77281;BME280;66339;47.262;17.144;2023-07-20T06:13:51;99778.75;;;25.54;57.18
77281;BME280;66339;47.262;17.144;2023-07-20T06:16:18;99784.62;;;25.56;57.26
77281;BME280;66339;47.262;17.144;2023-07-20T06:18:45;99786.56;;;25.55;57.26
77281;BME280;66339;47.262;17.144;2023-07-20T06:21:11;99786.22;;;25.57;57.22
77281;BME280;66339;47.262;17.144;2023-07-20T06:23:40;99788.91;;;25.57;57.14
77281;BME280;66339;47.262;17.144;2023-07-20T06:26:10;99788.91;;;25.57;57.27
77281;BME280;66339;47.262;17.144;2023-07-20T06:28:37;99787.78;;;25.58;57.15
77281;BME280;66339;47.262;17.144;2023-07-20T06:31:04;99781.59;;;25.57;57.24
77281;BME280;66339;47.262;17.144;2023-07-20T06:33:31;99783.97;;;25.59;56.59
77281;BME280;66339;47.262;17.144;2023-07-20T06:35:57;99786.69;;;25.59;56.64
77281;BME280;66339;47.262;17.144;2023-07-20T06:38:25;99793.69;;;25.60;56.55
77281;BME280;66339;47.262;17.144;2023-07-20T06:41:01;99780.59;;;25.62;57.04
77281;BME280;66339;47.262;17.144;2023-07-20T06:43:34;99793.03;;;25.63;56.49
77281;BME280;66339;47.262;17.144;2023-07-20T06:46:06;99798.09;;;25.64;56.51
77281;BME280;66339;47.262;17.144;2023-07-20T06:48:34;99799.38;;;25.67;56.85
77281;BME280;66339;47.262;17.144;2023-07-20T06:51:20;99800.94;;;25.68;56.83
77281;BME280;66339;47.262;17.144;2023-07-20T06:53:50;99799.38;;;25.67;56.75
77281;BME280;66339;47.262;17.144;2023-07-20T06:56:20;99802.53;;;25.69;56.85
77281;BME280;66339;47.262;17.144;2023-07-20T06:58:51;99802.53;;;25.69;56.83
77281;BME280;66339;47.262;17.144;2023-07-20T07:01:18;99807.62;;;25.70;56.88
77281;BME280;66339;47.262;17.144;2023-07-20T07:03:51;99808.88;;;25.73;57.11
77281;BME280;66339;47.262;17.144;2023-07-20T07:06:21;99808.88;;;25.73;57.33
77281;BME280;66339;47.262;17.144;2023-07-20T07:08:52;99810.44;;;25.74;57.47
77281;BME280;66339;47.262;17.144;2023-07-20T07:11:20;99817.78;;;25.74;56.96
77281;BME280;66339;47.262;17.144;2023-07-20T07:13:47;99817.47;;;25.75;56.61
77281;BME280;66339;47.262;17.144;2023-07-20T07:16:14;99825.13;;;25.73;56.34
77281;BME280;66339;47.262;17.144;2023-07-20T07:18:46;99825.13;;;25.73;55.95
77281;BME280;66339;47.262;17.144;2023-07-20T07:21:15;99823.19;;;25.74;56.26
77281;BME280;66339;47.262;17.144;2023-07-20T07:23:42;99817.47;;;25.75;55.66
77281;BME280;66339;47.262;17.144;2023-07-20T07:26:09;99821.75;;;25.76;56.38
77281;BME280;66339;47.262;17.144;2023-07-20T07:28:39;99822.28;;;25.78;56.85
77281;BME280;66339;47.262;17.144;2023-07-20T07:31:06;99833.09;;;25.78;56.84
77281;BME280;66339;47.262;17.144;2023-07-20T07:33:33;99823.84;;;25.79;56.91
77281;BME280;66339;47.262;17.144;2023-07-20T07:36:03;99828.13;;;25.80;56.45
77281;BME280;66339;47.262;17.144;2023-07-20T07:38:31;99832.44;;;25.81;56.28
77281;BME280;66339;47.262;17.144;2023-07-20T07:41:18;99833.22;;;25.82;55.79
77281;BME280;66339;47.262;17.144;2023-07-20T07:43:45;99828.94;;;25.81;55.48
77281;BME280;66339;47.262;17.144;2023-07-20T07:46:14;99832.44;;;25.81;55.59
77281;BME280;66339;47.262;17.144;2023-07-20T07:48:44;99827.00;;;25.81;56.23
77281;BME280;66339;47.262;17.144;2023-07-20T07:51:11;99823.19;;;25.82;57.17
77281;BME280;66339;47.262;17.144;2023-07-20T07:53:41;99824.78;;;25.83;57.54
77281;BME280;66339;47.262;17.144;2023-07-20T07:56:08;99843.41;;;25.85;57.50
77281;BME280;66339;47.262;17.144;2023-07-20T07:58:36;99845.78;;;25.86;56.53
77281;BME280;66339;47.262;17.144;2023-07-20T08:01:05;99844.97;;;25.86;55.63
77281;BME280;66339;47.262;17.144;2023-07-20T08:03:32;99842.59;;;25.84;55.64
77281;BME280;66339;47.262;17.144;2023-07-20T08:05:59;99837.19;;;25.84;55.94
77281;BME280;66339;47.262;17.144;2023-07-20T08:08:27;99837.97;;;25.85;55.68
77281;BME280;66339;47.262;17.144;2023-07-20T08:10:54;99837.19;;;25.84;56.11
77281;BME280;66339;47.262;17.144;2023-07-20T08:13:25;99827.94;;;25.85;55.76
77281;BME280;66339;47.262;17.144;2023-07-20T08:15:52;99838.75;;;25.85;55.90
77281;BME280;66339;47.262;17.144;2023-07-20T08:18:19;99848.81;;;25.85;56.17
77281;BME280;66339;47.262;17.144;2023-07-20T08:20:47;99842.59;;;25.84;55.31
77281;BME280;66339;47.262;17.144;2023-07-20T08:23:19;99848.37;;;25.83;55.37
77281;BME280;66339;47.262;17.144;2023-07-20T08:25:46;99849.94;;;25.84;55.65
77281;BME280;66339;47.262;17.144;2023-07-20T08:28:14;99857.28;;;25.83;55.35
77281;BME280;66339;47.262;17.144;2023-07-20T08:33:18;99857.28;;;25.83;54.63
77281;BME280;66339;47.262;17.144;2023-07-20T08:35:48;99866.53;;;25.82;55.68
77281;BME280;66339;47.262;17.144;2023-07-20T08:38:16;99861.13;;;25.82;55.41
77281;BME280;66339;47.262;17.144;2023-07-20T08:40:44;99870.81;;;25.83;55.92
77281;BME280;66339;47.262;17.144;2023-07-20T08:43:12;99872.75;;;25.83;54.48
77281;BME280;66339;47.262;17.144;2023-07-20T08:45:39;99883.25;;;25.84;55.04
77281;BME280;66339;47.262;17.144;2023-07-20T08:48:08;99874.31;;;25.84;55.87
77281;BME280;66339;47.262;17.144;2023-07-20T08:50:35;99879.41;;;25.85;55.05
77281;BME280;66339;47.262;17.144;2023-07-20T08:53:08;99889.16;;;25.86;55.30
77281;BME280;66339;47.262;17.144;2023-07-20T08:55:35;99876.38;;;25.87;55.36
77281;BME280;66339;47.262;17.144;2023-07-20T08:58:02;99888.00;;;25.87;54.69
77281;BME280;66339;47.262;17.144;2023-07-20T09:00:32;99874.00;;;25.85;54.89
77281;BME280;66339;47.262;17.144;2023-07-20T09:03:01;99874.00;;;25.85;55.23
77281;BME280;66339;47.262;17.144;2023-07-20T09:05:32;99881.81;;;25.87;55.64
77281;BME280;66339;47.262;17.144;2023-07-20T09:07:59;99880.66;;;25.88;55.63
77281;BME280;66339;47.262;17.144;2023-07-20T09:10:26;99874.13;;;25.89;55.85
77281;BME280;66339;47.262;17.144;2023-07-20T09:12:55;99883.03;;;25.89;55.83
77281;BME280;66339;47.262;17.144;2023-07-20T09:15:28;99882.25;;;25.89;56.13
77281;BME280;66339;47.262;17.144;2023-07-20T09:17:55;99879.22;;;25.90;56.41
77281;BME280;66339;47.262;17.144;2023-07-20T09:20:22;99878.44;;;25.90;56.63
77281;BME280;66339;47.262;17.144;2023-07-20T09:22:50;99872.19;;;25.89;57.11
77281;BME280;66339;47.262;17.144;2023-07-20T09:25:18;99879.22;;;25.90;55.38
77281;BME280;66339;47.262;17.144;2023-07-20T09:27:46;99878.44;;;25.90;55.72
77281;BME280;66339;47.262;17.144;2023-07-20T09:30:16;99875.38;;;25.91;55.04
77281;BME280;66339;47.262;17.144;2023-07-20T09:32:46;99875.38;;;25.91;54.63
77281;BME280;66339;47.262;17.144;2023-07-20T09:35:22;99869.19;;;25.91;53.32
77281;BME280;66339;47.262;17.144;2023-07-20T09:37:58;99874.59;;;25.91;53.54
77281;BME280;66339;47.262;17.144;2023-07-20T09:40:29;99869.97;;;25.91;54.86
77281;BME280;66339;47.262;17.144;2023-07-20T09:43:01;99859.13;;;25.91;55.11
77281;BME280;66339;47.262;17.144;2023-07-20T09:45:34;99864.56;;;25.91;53.69
77281;BME280;66339;47.262;17.144;2023-07-20T09:48:23;99857.56;;;25.90;53.93
77281;BME280;66339;47.262;17.144;2023-07-20T09:50:56;99859.13;;;25.91;53.40
77281;BME280;66339;47.262;17.144;2023-07-20T09:53:26;99859.13;;;25.91;53.85
77281;BME280;66339;47.262;17.144;2023-07-20T09:55:53;99860.72;;;25.92;54.23
77281;BME280;66339;47.262;17.144;2023-07-20T09:58:23;99860.72;;;25.92;54.45
77281;BME280;66339;47.262;17.144;2023-07-20T10:00:51;99867.72;;;25.93;53.50
77281;BME280;66339;47.262;17.144;2023-07-20T10:03:25;99864.22;;;25.93;53.04
77281;BME280;66339;47.262;17.144;2023-07-20T10:06:02;99861.50;;;25.93;53.51
77281;BME280;66339;47.262;17.144;2023-07-20T10:08:30;99861.50;;;25.93;53.68
77281;BME280;66339;47.262;17.144;2023-07-20T10:11:00;99850.66;;;25.93;53.44
77281;BME280;66339;47.262;17.144;2023-07-20T10:13:29;99851.44;;;25.93;52.99
77281;BME280;66339;47.262;17.144;2023-07-20T10:16:07;99858.47;;;25.94;52.92
77281;BME280;66339;47.262;17.144;2023-07-20T10:18:55;99858.47;;;25.94;52.67
77281;BME280;66339;47.262;17.144;2023-07-20T10:21:25;99857.34;;;25.95;53.57
77281;BME280;66339;47.262;17.144;2023-07-20T10:23:58;99854.63;;;25.95;52.76
77281;BME280;66339;47.262;17.144;2023-07-20T10:26:26;99858.47;;;25.94;53.05
77281;BME280;66339;47.262;17.144;2023-07-20T10:28:53;99851.44;;;25.93;53.13
77281;BME280;66339;47.262;17.144;2023-07-20T10:31:23;99856.87;;;25.93;53.24
77281;BME280;66339;47.262;17.144;2023-07-20T10:33:53;99852.28;;;25.94;53.27
77281;BME280;66339;47.262;17.144;2023-07-20T10:36:27;99853.38;;;25.93;53.65
77281;BME280;66339;47.262;17.144;2023-07-20T10:39:00;99858.00;;;25.92;53.79
77281;BME280;66339;47.262;17.144;2023-07-20T10:41:39;99856.87;;;25.93;53.39
77281;BME280;66339;47.262;17.144;2023-07-20T10:44:09;99853.06;;;25.94;54.24
77281;BME280;66339;47.262;17.144;2023-07-20T10:46:45;99860.06;;;25.95;54.61
77281;BME280;66339;47.262;17.144;2023-07-20T10:49:13;99859.28;;;25.95;54.15
77281;BME280;66339;47.262;17.144;2023-07-20T10:51:46;99862.78;;;25.95;54.18
77281;BME280;66339;47.262;17.144;2023-07-20T10:56:51;99855.09;;;25.98;54.12
77281;BME280;66339;47.262;17.144;2023-07-20T10:59:19;99848.87;;;25.97;54.01
77281;BME280;66339;47.262;17.144;2023-07-20T11:01:49;99845.72;;;25.95;54.01
77281;BME280;66339;47.262;17.144;2023-07-20T11:04:19;99840.63;;;25.93;54.31
77281;BME280;66339;47.262;17.144;2023-07-20T11:06:48;99847.31;;;25.96;54.44
77281;BME280;66339;47.262;17.144;2023-07-20T11:09:22;99847.66;;;25.94;54.50
77281;BME280;66339;47.262;17.144;2023-07-20T11:12:08;99841.44;;;25.94;54.65
77281;BME280;66339;47.262;17.144;2023-07-20T11:14:36;99836.81;;;25.94;54.61
77281;BME280;66339;47.262;17.144;2023-07-20T11:17:11;99836.81;;;25.94;54.75
77281;BME280;66339;47.262;17.144;2023-07-20T11:19:38;99844.94;;;25.94;54.81
77281;BME280;66339;47.262;17.144;2023-07-20T11:22:11;99837.59;;;25.95;54.63
77281;BME280;66339;47.262;17.144;2023-07-20T11:24:42;99836.81;;;25.94;55.09
77281;BME280;66339;47.262;17.144;2023-07-20T11:27:12;99836.81;;;25.94;54.96
77281;BME280;66339;47.262;17.144;2023-07-20T11:29:39;99843.81;;;25.95;55.29
77281;BME280;66339;47.262;17.144;2023-07-20T11:32:07;99832.97;;;25.95;54.63
77281;BME280;66339;47.262;17.144;2023-07-20T11:34:34;99832.97;;;25.95;55.55
77281;BME280;66339;47.262;17.144;2023-07-20T11:37:03;99827.53;;;25.95;55.75
77281;BME280;66339;47.262;17.144;2023-07-20T11:39:33;99823.69;;;25.97;55.56
77281;BME280;66339;47.262;17.144;2023-07-20T11:42:02;99824.19;;;25.99;55.71
77281;BME280;66339;47.262;17.144;2023-07-20T11:44:29;99824.19;;;25.99;55.83
77281;BME280;66339;47.262;17.144;2023-07-20T11:47:00;99826.09;;;25.98;55.85
77281;BME280;66339;47.262;17.144;2023-07-20T11:49:27;99826.09;;;25.98;56.01
77281;BME280;66339;47.262;17.144;2023-07-20T11:51:54;99821.47;;;25.99;56.17
77281;BME280;66339;47.262;17.144;2023-07-20T11:54:24;99826.41;;;25.97;56.34
77281;BME280;66339;47.262;17.144;2023-07-20T11:56:54;99819.88;;;25.98;56.34
77281;BME280;66339;47.262;17.144;2023-07-20T11:59:22;99822.56;;;25.98;56.30
77281;BME280;66339;47.262;17.144;2023-07-20T12:01:48;99821.78;;;25.97;56.34
77281;BME280;66339;47.262;17.144;2023-07-20T12:04:15;99817.16;;;25.98;56.42
77281;BME280;66339;47.262;17.144;2023-07-20T12:06:42;99815.25;;;25.98;56.34
77281;BME280;66339;47.262;17.144;2023-07-20T12:09:12;99809.84;;;25.98;56.35
77281;BME280;66339;47.262;17.144;2023-07-20T12:11:39;99807.91;;;25.99;56.47
77281;BME280;66339;47.262;17.144;2023-07-20T12:14:09;99803.28;;;25.99;56.69
77281;BME280;66339;47.262;17.144;2023-07-20T12:16:43;99800.56;;;25.99;56.53
77281;BME280;66339;47.262;17.144;2023-07-20T12:19:14;99802.50;;;25.99;56.63
77281;BME280;66339;47.262;17.144;2023-07-20T12:21:41;99801.38;;;26.00;56.64
77281;BME280;66339;47.262;17.144;2023-07-20T12:24:10;99806.00;;;25.99;56.67
77281;BME280;66339;47.262;17.144;2023-07-20T12:26:37;99795.94;;;26.00;56.72
77281;BME280;66339;47.262;17.144;2023-07-20T12:29:06;99789.41;;;26.01;56.57
77281;BME280;66339;47.262;17.144;2023-07-20T12:31:34;99792.91;;;26.01;56.56
77281;BME280;66339;47.262;17.144;2023-07-20T12:34:03;99801.84;;;26.02;56.60
77281;BME280;66339;47.262;17.144;2023-07-20T12:36:34;99778.25;;;26.02;56.56
77281;BME280;66339;47.262;17.144;2023-07-20T12:39:03;99779.03;;;26.03;56.50
77281;BME280;66339;47.262;17.144;2023-07-20T12:41:32;99776.31;;;26.03;56.65
77281;BME280;66339;47.262;17.144;2023-07-20T12:43:59;99775.19;;;26.04;56.58
77281;BME280;66339;47.262;17.144;2023-07-20T12:46:25;99781.41;;;26.04;56.58
77281;BME280;66339;47.262;17.144;2023-07-20T12:48:59;99775.19;;;26.04;56.60
77281;BME280;66339;47.262;17.144;2023-07-20T12:51:26;99772.13;;;26.05;56.63
77281;BME280;66339;47.262;17.144;2023-07-20T12:53:57;99775.97;;;26.04;56.56
77281;BME280;66339;47.262;17.144;2023-07-20T12:56:25;99782.19;;;26.05;56.73
77281;BME280;66339;47.262;17.144;2023-07-20T12:58:59;99782.97;;;26.05;56.82
77281;BME280;66339;47.262;17.144;2023-07-20T13:01:25;99780.59;;;26.04;56.90
77281;BME280;66339;47.262;17.144;2023-07-20T13:03:56;99787.59;;;26.05;57.04
77281;BME280;66339;47.262;17.144;2023-07-20T13:06:25;99784.91;;;26.05;56.73
77281;BME280;66339;47.262;17.144;2023-07-20T13:08:54;99783.78;;;26.06;56.75
77281;BME280;66339;47.262;17.144;2023-07-20T13:11:20;99782.97;;;26.05;56.50
77281;BME280;66339;47.262;17.144;2023-07-20T13:13:48;99786.03;;;26.04;56.65